• Join FlightAware (Why Join?)
  • Login
  • US Flag 
12:43PM EDT


 

Airport Tracker/Info


-or-


 

Live Flight TrackerFlight Track Log ✈ UCA3599 ✈ 12-Sep-2013 ✈ KBGM - KIAD

Flight Track Log - Related Links

Times and Time Zones

All times are in EDT time to prevent confusion due to time zone crossing. See the UCA3599 flight status page for this flight to view local times or setup timezone preferences in your user account.

Time Position Orientation Groundspeed Altitude Reporting Facility
EDT Latitude Longitude Course Direction KTS MPH feet Rate Location/Type
06:25AM 42.1614 -75.9717 228° Southwest 255 293 3,300  Level New York Center
06:26AM 42.1186 -75.9989 205° Southwest 171 197 4,800 1,260 Climbing New York Center
06:27AM 42.0900 -76.0303 219° Southwest 176 203 5,900 1,200 Climbing New York Center
06:28AM 42.0508 -76.0689 216° Southwest 171 197 7,200 1,200 Climbing New York Center
06:29AM 42.0117 -76.1078 216° Southwest 177 204 8,300 1,140 Climbing New York Center
06:30AM 41.9780 -76.0894 209° Southwest  Level Estimated
06:30AM 41.9700 -76.1517 218° Southwest 177 204 9,500  Level New York Center
06:31AM 41.9452 -76.1381 228° Southwest  Level FlightAware Approximate
06:31AM 41.9308 -76.1933 218° Southwest 184 212 10,500  Level New York Center
06:32AM 41.8917 -76.2289 214° Southwest 184 212 11,500 900 Climbing New York Center
06:33AM 41.8567 -76.2650 218° Southwest 184 212 12,400 960 Climbing New York Center
06:34AM 41.8131 -76.3089 217° Southwest 184 212 13,500 1,020 Climbing New York Center
06:35AM 41.7736 -76.3472 216° Southwest 184 212 14,500 900 Climbing New York Center
06:36AM 41.7342 -76.3883 218° Southwest 184 212 15,400 720 Climbing New York Center
06:37AM 41.6994 -76.4217 216° Southwest 184 212 16,000 300 Climbing New York Center
06:38AM 41.6556 -76.4653 217° Southwest 194 223 16,000  Level New York Center
06:39AM 41.6008 -76.5214 217° Southwest 214 246 16,000  Level New York Center
06:40AM 41.5486 -76.5697 215° Southwest 226 260 16,000  Level New York Center
06:41AM 41.4961 -76.6206 216° Southwest 233 268 16,000  Level New York Center
06:42AM 41.4478 -76.6689 217° Southwest 233 268 16,000  Level New York Center
06:43AM 41.3886 -76.7303 218° Southwest 238 274 16,000  Level New York Center
06:44AM 41.3339 -76.7806 215° Southwest 238 274 16,000  Level New York Center
06:45AM 41.2667 -76.7939 188° South 238 274 16,000  Level New York Center
06:46AM 41.1950 -76.8069 188° South 250 288 16,000  Level New York Center
06:47AM 41.1233 -76.8225 189° South 255 293 16,000  Level New York Center
06:48AM 41.0542 -76.8328 186° South 261 300 16,000  Level New York Center
06:49AM 40.9825 -76.8486 189° South 261 300 16,000  Level New York Center
06:50AM 40.9131 -76.8614 188° South 261 300 16,000  Level New York Center
06:51AM 40.8497 -76.8750 189° South 261 300 16,100 900 Climbing New York Center
06:52AM 40.7847 -76.8856 187° South 239 275 17,800 900 Climbing New York Center
06:53AM 40.7317 -76.9028 194° South 220 253 18,000 60 Climbing New York Center
06:54AM 40.6636 -76.9269 195° South 230 265 18,000  Level New York Center
06:55AM 40.6044 -76.9436 192° South 242 278 18,000  Level New York Center
06:56AM 40.5303 -76.9669 193° South 248 285 18,000  Level New York Center
06:57AM 40.4667 -76.9858 193° South 253 291 18,000 -300 Level New York Center
06:59AM 40.3500 -77.0167 191° South 268 308 17,300 -660 Descending Potomac TRACON
07:00AM 40.2833 -77.0500 201° Southwest 277 319 16,500 -960 Descending Potomac TRACON
07:01AM 40.2000 -77.0667 189° South 280 322 15,400 -1,020 Descending Potomac TRACON
07:02AM 40.1333 -77.0833 191° South 282 325 14,500 -1,020 Descending Potomac TRACON
07:03AM 40.0667 -77.1167 201° Southwest 281 323 13,500 -1,020 Descending Potomac TRACON
07:04AM 39.9833 -77.1333 189° South 279 321 12,600 -1,020 Descending Potomac TRACON
07:05AM 39.9000 -77.1500 189° South 277 319 11,500 -1,020 Descending Potomac TRACON
07:05AM 39.8500 -77.1833 207° Southwest 275 316 10,700 -1,020 Descending Potomac TRACON
07:06AM 39.7833 -77.2333 210° Southwest 272 313 9,700 -1,020 Descending Potomac TRACON
07:07AM 39.7167 -77.2833 210° Southwest 250 288 8,700 -1,020 Descending Potomac TRACON
07:08AM 39.6667 -77.3167 207° Southwest 261 300 7,800 -960 Descending Potomac TRACON
07:09AM 39.6000 -77.3833 218° Southwest 263 303 6,800 -960 Descending Potomac TRACON
07:10AM 39.5500 -77.4167 207° Southwest 259 298 5,900 -1,320 Descending Potomac TRACON
07:11AM 39.4833 -77.4167 180° South 241 277 4,400 -960 Descending Potomac TRACON
07:12AM 39.4000 -77.4333 189° South 247 284 4,000 -240 Descending Potomac TRACON
07:13AM 39.3500 -77.4333 180° South 245 282 4,000 -540 Level Potomac TRACON
07:14AM 39.2667 -77.4333 180° South 257 296 3,000 -540 Descending Potomac TRACON
07:15AM 39.2000 -77.4333 180° South 238 274 3,000  Level Potomac TRACON
07:16AM 39.1333 -77.4333 180° South 245 282 3,000 -240 Level Potomac TRACON
07:17AM 39.0833 -77.4333 180° South 200 230 2,600 -660 Descending Potomac TRACON
07:18AM 39.0333 -77.4333 180° South 156 180 1,800 -780 Descending Potomac TRACON
07:19AM 39.0000 -77.4333 180° South 129 148 1,100 -660 Descending Potomac TRACON
07:20AM 38.9667 -77.4333 180° South 127 146 500 -480 Descending Potomac TRACON
07:21AM 39.0000 -77.4333 360° North 58 67 300 -120 Descending Potomac TRACON
07:22AM 38.9833 -77.4333 180° South 14 16 300  Level Potomac TRACON
07:25AM 38.9474 -77.4599 180° South  Level Estimated
07:32AM 38.9474 -77.4599 349° North  Level Estimated
07:33AM 38.9474 -77.4599 349° North  Level Estimated
07:34AM 38.9474 -77.4599 349° North  Level Estimated
07:35AM 38.9474 -77.4599 349° North  Level Estimated